sensor_id;sensor_type;location;lat;lon;timestamp;temperature;humidity
28761;DHT22;15917;50.014;8.352;2022-09-09T00:04:12;18.00;99.90
28761;DHT22;15917;50.014;8.352;2022-09-09T00:12:14;17.80;99.90
28761;DHT22;15917;50.014;8.352;2022-09-09T00:15:05;17.80;99.90
28761;DHT22;15917;50.014;8.352;2022-09-09T00:20:30;17.90;99.90
28761;DHT22;15917;50.014;8.352;2022-09-09T00:23:04;17.80;99.90
28761;DHT22;15917;50.014;8.352;2022-09-09T00:25:42;17.80;99.90
28761;DHT22;15917;50.014;8.352;2022-09-09T00:28:16;17.80;99.90
28761;DHT22;15917;50.014;8.352;2022-09-09T00:30:43;17.80;99.90
28761;DHT22;15917;50.014;8.352;2022-09-09T00:33:13;17.70;99.90
28761;DHT22;15917;50.014;8.352;2022-09-09T00:36:00;17.80;99.90
28761;DHT22;15917;50.014;8.352;2022-09-09T00:38:41;17.80;99.90
28761;DHT22;15917;50.014;8.352;2022-09-09T00:42:02;17.80;99.90
28761;DHT22;15917;50.014;8.352;2022-09-09T00:57:58;17.60;99.90
28761;DHT22;15917;50.014;8.352;2022-09-09T01:00:25;17.50;99.90
28761;DHT22;15917;50.014;8.352;2022-09-09T01:03:02;17.40;99.90
28761;DHT22;15917;50.014;8.352;2022-09-09T01:05:46;17.40;99.90
28761;DHT22;15917;50.014;8.352;2022-09-09T01:11:37;17.20;99.90
28761;DHT22;15917;50.014;8.352;2022-09-09T01:20:17;17.00;99.90
28761;DHT22;15917;50.014;8.352;2022-09-09T01:23:16;17.00;99.90
28761;DHT22;15917;50.014;8.352;2022-09-09T01:28:38;17.10;99.90
28761;DHT22;15917;50.014;8.352;2022-09-09T01:31:13;17.10;99.90
28761;DHT22;15917;50.014;8.352;2022-09-09T01:33:43;17.10;99.90
28761;DHT22;15917;50.014;8.352;2022-09-09T01:36:13;17.10;99.90
28761;DHT22;15917;50.014;8.352;2022-09-09T01:38:47;17.10;99.90
28761;DHT22;15917;50.014;8.352;2022-09-09T01:41:14;17.10;99.90
28761;DHT22;15917;50.014;8.352;2022-09-09T01:43:47;17.00;99.90
28761;DHT22;15917;50.014;8.352;2022-09-09T01:46:13;17.00;99.90
28761;DHT22;15917;50.014;8.352;2022-09-09T01:48:41;17.00;99.90
28761;DHT22;15917;50.014;8.352;2022-09-09T01:51:09;17.00;99.90
28761;DHT22;15917;50.014;8.352;2022-09-09T01:53:40;17.10;99.90
28761;DHT22;15917;50.014;8.352;2022-09-09T01:59:14;17.20;99.90
28761;DHT22;15917;50.014;8.352;2022-09-09T02:04:43;17.20;99.90
28761;DHT22;15917;50.014;8.352;2022-09-09T02:07:38;17.30;99.90
28761;DHT22;15917;50.014;8.352;2022-09-09T02:13:08;17.20;99.90
28761;DHT22;15917;50.014;8.352;2022-09-09T02:18:17;17.10;99.90
28761;DHT22;15917;50.014;8.352;2022-09-09T02:20:45;17.00;99.90
28761;DHT22;15917;50.014;8.352;2022-09-09T02:23:12;17.00;99.90
28761;DHT22;15917;50.014;8.352;2022-09-09T02:25:41;17.00;99.90
28761;DHT22;15917;50.014;8.352;2022-09-09T02:28:16;17.10;99.90
28761;DHT22;15917;50.014;8.352;2022-09-09T02:30:45;17.10;99.90
28761;DHT22;15917;50.014;8.352;2022-09-09T02:33:14;17.20;99.90
28761;DHT22;15917;50.014;8.352;2022-09-09T02:35:46;17.20;99.90
28761;DHT22;15917;50.014;8.352;2022-09-09T02:38:18;17.20;99.90
28761;DHT22;15917;50.014;8.352;2022-09-09T02:40:55;17.30;99.90
28761;DHT22;15917;50.014;8.352;2022-09-09T02:43:21;17.20;99.90
28761;DHT22;15917;50.014;8.352;2022-09-09T02:49:00;17.10;99.90
28761;DHT22;15917;50.014;8.352;2022-09-09T02:52:00;17.10;99.90
28761;DHT22;15917;50.014;8.352;2022-09-09T02:54:30;17.20;99.90
28761;DHT22;15917;50.014;8.352;2022-09-09T02:57:10;17.20;99.90
28761;DHT22;15917;50.014;8.352;2022-09-09T02:59:39;17.20;99.90
28761;DHT22;15917;50.014;8.352;2022-09-09T03:02:05;17.10;99.90
28761;DHT22;15917;50.014;8.352;2022-09-09T03:04:33;17.10;99.90
28761;DHT22;15917;50.014;8.352;2022-09-09T03:06:59;17.10;99.90
28761;DHT22;15917;50.014;8.352;2022-09-09T03:09:25;17.10;99.90
28761;DHT22;15917;50.014;8.352;2022-09-09T03:11:52;17.00;99.90
28761;DHT22;15917;50.014;8.352;2022-09-09T03:14:21;16.90;99.90
28761;DHT22;15917;50.014;8.352;2022-09-09T03:16:50;16.90;99.90
28761;DHT22;15917;50.014;8.352;2022-09-09T03:19:16;17.00;99.90
28761;DHT22;15917;50.014;8.352;2022-09-09T03:21:42;17.00;99.90
28761;DHT22;15917;50.014;8.352;2022-09-09T03:24:08;17.00;99.90
28761;DHT22;15917;50.014;8.352;2022-09-09T03:26:34;16.90;99.90
28761;DHT22;15917;50.014;8.352;2022-09-09T03:29:00;17.00;99.90
28761;DHT22;15917;50.014;8.352;2022-09-09T03:31:27;17.00;99.90
28761;DHT22;15917;50.014;8.352;2022-09-09T03:33:57;16.90;99.90
28761;DHT22;15917;50.014;8.352;2022-09-09T03:36:26;17.00;99.90
28761;DHT22;15917;50.014;8.352;2022-09-09T03:38:52;16.90;99.90
28761;DHT22;15917;50.014;8.352;2022-09-09T03:41:21;16.90;99.90
28761;DHT22;15917;50.014;8.352;2022-09-09T03:43:53;16.90;99.90
28761;DHT22;15917;50.014;8.352;2022-09-09T03:46:21;17.00;99.90
28761;DHT22;15917;50.014;8.352;2022-09-09T03:48:47;17.00;99.90
28761;DHT22;15917;50.014;8.352;2022-09-09T03:51:14;17.10;99.90
28761;DHT22;15917;50.014;8.352;2022-09-09T03:53:41;17.10;99.90
28761;DHT22;15917;50.014;8.352;2022-09-09T03:56:07;17.10;99.90
28761;DHT22;15917;50.014;8.352;2022-09-09T03:58:36;17.10;99.90
28761;DHT22;15917;50.014;8.352;2022-09-09T04:01:12;17.00;99.90
28761;DHT22;15917;50.014;8.352;2022-09-09T04:03:39;17.00;99.90
28761;DHT22;15917;50.014;8.352;2022-09-09T04:06:12;16.90;99.90
28761;DHT22;15917;50.014;8.352;2022-09-09T04:08:40;16.80;99.90
28761;DHT22;15917;50.014;8.352;2022-09-09T04:11:07;16.80;99.90
28761;DHT22;15917;50.014;8.352;2022-09-09T04:13:35;16.80;99.90
28761;DHT22;15917;50.014;8.352;2022-09-09T04:16:03;16.80;99.90
28761;DHT22;15917;50.014;8.352;2022-09-09T04:18:30;16.80;99.90
28761;DHT22;15917;50.014;8.352;2022-09-09T04:20:56;16.80;99.90
28761;DHT22;15917;50.014;8.352;2022-09-09T04:23:27;16.70;99.90
28761;DHT22;15917;50.014;8.352;2022-09-09T04:25:57;16.70;99.90
28761;DHT22;15917;50.014;8.352;2022-09-09T04:28:25;16.60;99.90
28761;DHT22;15917;50.014;8.352;2022-09-09T04:30:51;16.70;99.90
28761;DHT22;15917;50.014;8.352;2022-09-09T04:33:18;16.90;99.90
28761;DHT22;15917;50.014;8.352;2022-09-09T04:35:49;16.90;99.90
28761;DHT22;15917;50.014;8.352;2022-09-09T04:38:17;16.80;99.90
28761;DHT22;15917;50.014;8.352;2022-09-09T04:40:46;16.80;99.90
28761;DHT22;15917;50.014;8.352;2022-09-09T04:43:14;16.80;99.90
28761;DHT22;15917;50.014;8.352;2022-09-09T04:45:41;16.80;99.90
28761;DHT22;15917;50.014;8.352;2022-09-09T04:48:08;16.80;99.90
28761;DHT22;15917;50.014;8.352;2022-09-09T04:50:35;16.80;99.90
28761;DHT22;15917;50.014;8.352;2022-09-09T04:53:02;16.80;99.90
28761;DHT22;15917;50.014;8.352;2022-09-09T04:55:28;16.80;99.90
28761;DHT22;15917;50.014;8.352;2022-09-09T04:57:55;16.90;99.90
28761;DHT22;15917;50.014;8.352;2022-09-09T05:00:23;16.90;99.90
28761;DHT22;15917;50.014;8.352;2022-09-09T05:02:49;17.00;99.90
28761;DHT22;15917;50.014;8.352;2022-09-09T05:05:14;17.10;99.90
28761;DHT22;15917;50.014;8.352;2022-09-09T05:07:41;17.10;99.90
28761;DHT22;15917;50.014;8.352;2022-09-09T05:10:07;17.10;99.90
28761;DHT22;15917;50.014;8.352;2022-09-09T05:12:33;17.00;99.90
28761;DHT22;15917;50.014;8.352;2022-09-09T05:14:59;17.00;99.90
28761;DHT22;15917;50.014;8.352;2022-09-09T05:17:25;16.90;99.90
28761;DHT22;15917;50.014;8.352;2022-09-09T05:19:51;16.90;99.90
28761;DHT22;15917;50.014;8.352;2022-09-09T05:22:20;16.90;99.90
28761;DHT22;15917;50.014;8.352;2022-09-09T05:24:47;16.80;99.90
28761;DHT22;15917;50.014;8.352;2022-09-09T05:27:17;16.70;99.90
28761;DHT22;15917;50.014;8.352;2022-09-09T05:29:45;16.70;99.90
28761;DHT22;15917;50.014;8.352;2022-09-09T05:32:11;16.70;99.90
28761;DHT22;15917;50.014;8.352;2022-09-09T05:34:37;16.90;99.90
28761;DHT22;15917;50.014;8.352;2022-09-09T05:37:05;17.00;99.90
28761;DHT22;15917;50.014;8.352;2022-09-09T05:39:33;17.00;99.90
28761;DHT22;15917;50.014;8.352;2022-09-09T05:41:59;17.20;99.90
28761;DHT22;15917;50.014;8.352;2022-09-09T05:44:25;17.10;99.90
28761;DHT22;15917;50.014;8.352;2022-09-09T05:46:53;17.20;99.90
28761;DHT22;15917;50.014;8.352;2022-09-09T05:49:21;17.20;99.90
28761;DHT22;15917;50.014;8.352;2022-09-09T05:51:47;17.30;99.90
28761;DHT22;15917;50.014;8.352;2022-09-09T05:54:16;17.40;99.90
28761;DHT22;15917;50.014;8.352;2022-09-09T05:56:45;17.40;99.90
28761;DHT22;15917;50.014;8.352;2022-09-09T05:59:12;17.40;99.90
28761;DHT22;15917;50.014;8.352;2022-09-09T06:01:38;17.40;99.90
28761;DHT22;15917;50.014;8.352;2022-09-09T06:04:07;17.40;99.90
28761;DHT22;15917;50.014;8.352;2022-09-09T06:06:35;17.40;99.90
28761;DHT22;15917;50.014;8.352;2022-09-09T06:09:10;17.50;99.90
28761;DHT22;15917;50.014;8.352;2022-09-09T06:11:39;17.50;99.90
28761;DHT22;15917;50.014;8.352;2022-09-09T06:14:05;17.50;99.90
28761;DHT22;15917;50.014;8.352;2022-09-09T06:16:32;17.40;99.90
28761;DHT22;15917;50.014;8.352;2022-09-09T06:18:58;17.40;99.90
28761;DHT22;15917;50.014;8.352;2022-09-09T06:21:28;17.40;99.90
28761;DHT22;15917;50.014;8.352;2022-09-09T06:23:54;17.60;99.90
28761;DHT22;15917;50.014;8.352;2022-09-09T06:26:22;17.60;99.90
28761;DHT22;15917;50.014;8.352;2022-09-09T06:28:52;17.60;99.90
28761;DHT22;15917;50.014;8.352;2022-09-09T06:31:23;17.60;99.90
28761;DHT22;15917;50.014;8.352;2022-09-09T06:33:53;17.50;99.90
28761;DHT22;15917;50.014;8.352;2022-09-09T06:36:25;17.50;99.90
28761;DHT22;15917;50.014;8.352;2022-09-09T06:38:51;17.60;99.90
28761;DHT22;15917;50.014;8.352;2022-09-09T06:41:19;17.60;99.90
28761;DHT22;15917;50.014;8.352;2022-09-09T06:43:46;17.60;99.90
28761;DHT22;15917;50.014;8.352;2022-09-09T06:46:14;17.60;99.90
28761;DHT22;15917;50.014;8.352;2022-09-09T06:48:41;17.60;99.90
28761;DHT22;15917;50.014;8.352;2022-09-09T06:51:18;17.60;99.90
28761;DHT22;15917;50.014;8.352;2022-09-09T06:53:45;17.50;99.90
28761;DHT22;15917;50.014;8.352;2022-09-09T06:56:22;17.50;99.90
28761;DHT22;15917;50.014;8.352;2022-09-09T06:58:51;17.60;99.90
28761;DHT22;15917;50.014;8.352;2022-09-09T07:01:27;17.60;99.90
28761;DHT22;15917;50.014;8.352;2022-09-09T07:03:56;17.70;99.90
28761;DHT22;15917;50.014;8.352;2022-09-09T07:08:55;17.70;99.90
28761;DHT22;15917;50.014;8.352;2022-09-09T07:11:26;17.80;99.90
28761;DHT22;15917;50.014;8.352;2022-09-09T07:13:53;17.80;99.90
28761;DHT22;15917;50.014;8.352;2022-09-09T07:16:20;17.80;99.90
28761;DHT22;15917;50.014;8.352;2022-09-09T07:18:46;17.80;99.90
28761;DHT22;15917;50.014;8.352;2022-09-09T07:21:13;17.80;99.90
28761;DHT22;15917;50.014;8.352;2022-09-09T07:23:41;17.80;99.90
28761;DHT22;15917;50.014;8.352;2022-09-09T07:26:12;17.90;99.90
28761;DHT22;15917;50.014;8.352;2022-09-09T07:28:39;18.00;99.90
28761;DHT22;15917;50.014;8.352;2022-09-09T07:31:06;18.10;99.90
28761;DHT22;15917;50.014;8.352;2022-09-09T07:33:34;18.20;99.90
28761;DHT22;15917;50.014;8.352;2022-09-09T07:36:16;18.20;99.90
28761;DHT22;15917;50.014;8.352;2022-09-09T07:38:48;18.20;99.90
28761;DHT22;15917;50.014;8.352;2022-09-09T07:41:23;18.20;99.90
28761;DHT22;15917;50.014;8.352;2022-09-09T07:43:51;18.20;99.90
28761;DHT22;15917;50.014;8.352;2022-09-09T07:46:17;18.20;99.90
28761;DHT22;15917;50.014;8.352;2022-09-09T07:48:52;18.20;99.90
28761;DHT22;15917;50.014;8.352;2022-09-09T07:51:25;18.20;99.90
28761;DHT22;15917;50.014;8.352;2022-09-09T07:53:53;18.30;99.90
28761;DHT22;15917;50.014;8.352;2022-09-09T07:56:20;18.30;99.90
28761;DHT22;15917;50.014;8.352;2022-09-09T07:58:50;18.50;99.90
28761;DHT22;15917;50.014;8.352;2022-09-09T08:01:24;18.70;99.90
28761;DHT22;15917;50.014;8.352;2022-09-09T08:04:02;18.80;99.90
28761;DHT22;15917;50.014;8.352;2022-09-09T08:06:32;18.80;99.90
28761;DHT22;15917;50.014;8.352;2022-09-09T08:08:59;18.80;99.90
28761;DHT22;15917;50.014;8.352;2022-09-09T08:11:27;18.70;99.90
28761;DHT22;15917;50.014;8.352;2022-09-09T08:13:54;18.70;99.90
28761;DHT22;15917;50.014;8.352;2022-09-09T08:16:23;18.70;99.90
28761;DHT22;15917;50.014;8.352;2022-09-09T08:18:50;18.70;99.90
28761;DHT22;15917;50.014;8.352;2022-09-09T08:21:20;18.80;99.90
28761;DHT22;15917;50.014;8.352;2022-09-09T08:23:47;18.80;99.90
28761;DHT22;15917;50.014;8.352;2022-09-09T08:28:41;18.60;99.90
28761;DHT22;15917;50.014;8.352;2022-09-09T08:33:33;18.60;99.90
28761;DHT22;15917;50.014;8.352;2022-09-09T08:35:59;18.50;99.90
28761;DHT22;15917;50.014;8.352;2022-09-09T08:38:25;18.70;99.90
28761;DHT22;15917;50.014;8.352;2022-09-09T08:40:53;18.70;99.90
28761;DHT22;15917;50.014;8.352;2022-09-09T08:43:25;18.90;99.90
28761;DHT22;15917;50.014;8.352;2022-09-09T08:46:14;19.10;99.90
28761;DHT22;15917;50.014;8.352;2022-09-09T08:51:13;19.20;99.90
28761;DHT22;15917;50.014;8.352;2022-09-09T08:53:43;19.20;99.90
28761;DHT22;15917;50.014;8.352;2022-09-09T08:56:14;19.20;99.90
28761;DHT22;15917;50.014;8.352;2022-09-09T08:58:54;19.30;99.90
28761;DHT22;15917;50.014;8.352;2022-09-09T09:04:37;19.40;99.90
28761;DHT22;15917;50.014;8.352;2022-09-09T09:07:28;19.50;99.90
28761;DHT22;15917;50.014;8.352;2022-09-09T09:12:38;20.10;99.90
28761;DHT22;15917;50.014;8.352;2022-09-09T09:15:23;20.40;99.90
28761;DHT22;15917;50.014;8.352;2022-09-09T09:17:51;20.80;99.90
28761;DHT22;15917;50.014;8.352;2022-09-09T09:20:23;20.90;99.90
28761;DHT22;15917;50.014;8.352;2022-09-09T09:22:55;20.70;99.90
28761;DHT22;15917;50.014;8.352;2022-09-09T09:25:30;20.50;99.90
28761;DHT22;15917;50.014;8.352;2022-09-09T09:28:10;20.50;99.90
28761;DHT22;15917;50.014;8.352;2022-09-09T09:31:05;20.70;99.90
28761;DHT22;15917;50.014;8.352;2022-09-09T09:33:48;21.10;99.90
28761;DHT22;15917;50.014;8.352;2022-09-09T09:36:17;21.50;99.90
28761;DHT22;15917;50.014;8.352;2022-09-09T09:38:58;21.70;99.90
28761;DHT22;15917;50.014;8.352;2022-09-09T09:41:53;22.10;99.90
28761;DHT22;15917;50.014;8.352;2022-09-09T09:44:24;22.20;99.90
28761;DHT22;15917;50.014;8.352;2022-09-09T09:46:51;21.80;99.90
28761;DHT22;15917;50.014;8.352;2022-09-09T09:49:16;21.60;99.90
28761;DHT22;15917;50.014;8.352;2022-09-09T09:51:43;21.40;99.90
28761;DHT22;15917;50.014;8.352;2022-09-09T09:56:36;21.20;99.90
28761;DHT22;15917;50.014;8.352;2022-09-09T09:59:04;21.20;99.90
28761;DHT22;15917;50.014;8.352;2022-09-09T10:01:35;21.20;99.90
28761;DHT22;15917;50.014;8.352;2022-09-09T10:04:21;21.20;99.90
28761;DHT22;15917;50.014;8.352;2022-09-09T10:06:50;21.20;99.90
28761;DHT22;15917;50.014;8.352;2022-09-09T10:09:25;21.30;99.90
28761;DHT22;15917;50.014;8.352;2022-09-09T10:12:33;21.40;99.90
28761;DHT22;15917;50.014;8.352;2022-09-09T10:15:22;21.40;99.90
28761;DHT22;15917;50.014;8.352;2022-09-09T10:26:13;20.90;99.90
28761;DHT22;15917;50.014;8.352;2022-09-09T10:37:30;21.10;99.90
28761;DHT22;15917;50.014;8.352;2022-09-09T10:43:26;22.10;99.90
28761;DHT22;15917;50.014;8.352;2022-09-09T10:54:40;21.70;99.90
28761;DHT22;15917;50.014;8.352;2022-09-09T10:57:31;21.60;99.90
28761;DHT22;15917;50.014;8.352;2022-09-09T11:00:03;21.40;99.90
28761;DHT22;15917;50.014;8.352;2022-09-09T11:02:32;21.20;99.90
28761;DHT22;15917;50.014;8.352;2022-09-09T11:10:06;21.30;99.90
28761;DHT22;15917;50.014;8.352;2022-09-09T11:12:37;21.70;99.90
28761;DHT22;15917;50.014;8.352;2022-09-09T11:15:15;22.10;99.90
28761;DHT22;15917;50.014;8.352;2022-09-09T11:17:49;22.60;99.90
28761;DHT22;15917;50.014;8.352;2022-09-09T11:20:16;23.00;99.90
28761;DHT22;15917;50.014;8.352;2022-09-09T11:25:35;23.60;99.90
28761;DHT22;15917;50.014;8.352;2022-09-09T11:28:08;23.60;99.90
28761;DHT22;15917;50.014;8.352;2022-09-09T11:31:06;23.40;99.90
28761;DHT22;15917;50.014;8.352;2022-09-09T11:36:34;22.60;99.90
28761;DHT22;15917;50.014;8.352;2022-09-09T11:41:52;22.50;99.90
28761;DHT22;15917;50.014;8.352;2022-09-09T11:44:26;22.70;99.90
28761;DHT22;15917;50.014;8.352;2022-09-09T11:46:53;23.00;99.90
28761;DHT22;15917;50.014;8.352;2022-09-09T11:49:29;23.10;99.90
28761;DHT22;15917;50.014;8.352;2022-09-09T11:51:56;22.90;99.90
28761;DHT22;15917;50.014;8.352;2022-09-09T11:56:54;22.70;99.90
28761;DHT22;15917;50.014;8.352;2022-09-09T12:02:02;22.40;99.90
28761;DHT22;15917;50.014;8.352;2022-09-09T12:04:32;22.20;99.90
28761;DHT22;15917;50.014;8.352;2022-09-09T12:07:04;22.10;99.90
28761;DHT22;15917;50.014;8.352;2022-09-09T12:12:34;21.80;99.90
28761;DHT22;15917;50.014;8.352;2022-09-09T12:17:30;21.40;99.90
28761;DHT22;15917;50.014;8.352;2022-09-09T12:25:55;19.80;99.90
28761;DHT22;15917;50.014;8.352;2022-09-09T12:28:25;19.50;99.90
28761;DHT22;15917;50.014;8.352;2022-09-09T12:33:52;19.20;99.90
28761;DHT22;15917;50.014;8.352;2022-09-09T12:36:23;19.20;99.90
28761;DHT22;15917;50.014;8.352;2022-09-09T12:38:50;19.20;99.90
28761;DHT22;15917;50.014;8.352;2022-09-09T12:41:27;19.10;99.90
28761;DHT22;15917;50.014;8.352;2022-09-09T12:44:09;19.10;99.90
28761;DHT22;15917;50.014;8.352;2022-09-09T12:46:44;19.20;99.90
28761;DHT22;15917;50.014;8.352;2022-09-09T12:49:30;19.00;99.90
28761;DHT22;15917;50.014;8.352;2022-09-09T12:52:25;18.90;99.90
28761;DHT22;15917;50.014;8.352;2022-09-09T12:54:52;19.00;99.90
28761;DHT22;15917;50.014;8.352;2022-09-09T12:57:19;19.10;99.90
28761;DHT22;15917;50.014;8.352;2022-09-09T12:59:45;19.10;99.90
28761;DHT22;15917;50.014;8.352;2022-09-09T13:02:20;19.40;99.90
28761;DHT22;15917;50.014;8.352;2022-09-09T13:04:46;19.70;99.90
28761;DHT22;15917;50.014;8.352;2022-09-09T13:07:12;20.10;99.90
28761;DHT22;15917;50.014;8.352;2022-09-09T13:09:39;20.30;99.90
28761;DHT22;15917;50.014;8.352;2022-09-09T13:12:19;20.40;99.90
28761;DHT22;15917;50.014;8.352;2022-09-09T13:14:52;20.60;99.90
28761;DHT22;15917;50.014;8.352;2022-09-09T13:17:24;21.00;99.90
28761;DHT22;15917;50.014;8.352;2022-09-09T13:19:51;21.30;99.90
28761;DHT22;15917;50.014;8.352;2022-09-09T13:22:31;21.30;99.90
28761;DHT22;15917;50.014;8.352;2022-09-09T13:25:06;21.70;99.90
28761;DHT22;15917;50.014;8.352;2022-09-09T13:27:50;21.80;99.90
28761;DHT22;15917;50.014;8.352;2022-09-09T13:30:36;21.80;99.90
28761;DHT22;15917;50.014;8.352;2022-09-09T13:35:58;21.90;99.90
28761;DHT22;15917;50.014;8.352;2022-09-09T13:38:25;21.80;99.90
28761;DHT22;15917;50.014;8.352;2022-09-09T13:43:24;21.80;99.90
28761;DHT22;15917;50.014;8.352;2022-09-09T13:45:55;21.60;99.90
28761;DHT22;15917;50.014;8.352;2022-09-09T13:48:22;21.30;99.90
28761;DHT22;15917;50.014;8.352;2022-09-09T13:50:59;21.00;99.90
28761;DHT22;15917;50.014;8.352;2022-09-09T13:53:25;20.70;99.90
28761;DHT22;15917;50.014;8.352;2022-09-09T13:55:51;20.70;99.90
28761;DHT22;15917;50.014;8.352;2022-09-09T13:58:18;20.50;99.90
28761;DHT22;15917;50.014;8.352;2022-09-09T14:00:45;20.40;99.90
28761;DHT22;15917;50.014;8.352;2022-09-09T14:03:11;20.20;99.90
28761;DHT22;15917;50.014;8.352;2022-09-09T14:05:36;20.10;99.90
28761;DHT22;15917;50.014;8.352;2022-09-09T14:08:04;20.10;99.90
28761;DHT22;15917;50.014;8.352;2022-09-09T14:10:30;20.00;99.90
28761;DHT22;15917;50.014;8.352;2022-09-09T14:12:56;19.90;99.90
28761;DHT22;15917;50.014;8.352;2022-09-09T14:15:22;20.00;99.90
28761;DHT22;15917;50.014;8.352;2022-09-09T14:17:47;19.90;99.90
28761;DHT22;15917;50.014;8.352;2022-09-09T14:20:14;19.90;99.90
28761;DHT22;15917;50.014;8.352;2022-09-09T14:22:41;19.80;99.90
28761;DHT22;15917;50.014;8.352;2022-09-09T14:25:07;19.80;99.90
28761;DHT22;15917;50.014;8.352;2022-09-09T14:27:33;19.80;99.90
28761;DHT22;15917;50.014;8.352;2022-09-09T14:29:59;19.80;99.90
28761;DHT22;15917;50.014;8.352;2022-09-09T14:32:26;19.80;99.90
28761;DHT22;15917;50.014;8.352;2022-09-09T14:34:52;19.80;99.90
28761;DHT22;15917;50.014;8.352;2022-09-09T14:37:18;19.80;99.90
28761;DHT22;15917;50.014;8.352;2022-09-09T14:39:44;19.80;99.90
28761;DHT22;15917;50.014;8.352;2022-09-09T14:42:13;19.80;99.90
28761;DHT22;15917;50.014;8.352;2022-09-09T14:44:39;19.80;99.90
28761;DHT22;15917;50.014;8.352;2022-09-09T14:47:06;19.80;99.90
28761;DHT22;15917;50.014;8.352;2022-09-09T14:49:36;19.80;99.90
28761;DHT22;15917;50.014;8.352;2022-09-09T14:52:03;19.70;99.90
28761;DHT22;15917;50.014;8.352;2022-09-09T14:54:29;19.70;99.90
28761;DHT22;15917;50.014;8.352;2022-09-09T14:56:55;19.70;99.90
28761;DHT22;15917;50.014;8.352;2022-09-09T14:59:22;19.70;99.90
28761;DHT22;15917;50.014;8.352;2022-09-09T15:01:48;19.70;99.90
28761;DHT22;15917;50.014;8.352;2022-09-09T15:04:14;19.80;99.90
28761;DHT22;15917;50.014;8.352;2022-09-09T15:06:40;19.80;99.90
28761;DHT22;15917;50.014;8.352;2022-09-09T15:09:08;19.80;99.90
28761;DHT22;15917;50.014;8.352;2022-09-09T15:11:36;19.90;99.90
28761;DHT22;15917;50.014;8.352;2022-09-09T15:14:06;20.00;99.90
28761;DHT22;15917;50.014;8.352;2022-09-09T15:16:32;20.10;99.90
28761;DHT22;15917;50.014;8.352;2022-09-09T15:18:59;20.30;99.90
28761;DHT22;15917;50.014;8.352;2022-09-09T15:21:28;20.50;99.90
28761;DHT22;15917;50.014;8.352;2022-09-09T15:23:55;20.80;99.90
28761;DHT22;15917;50.014;8.352;2022-09-09T15:26:21;20.90;99.90
28761;DHT22;15917;50.014;8.352;2022-09-09T15:28:47;21.20;99.90
28761;DHT22;15917;50.014;8.352;2022-09-09T15:31:17;21.20;99.90
28761;DHT22;15917;50.014;8.352;2022-09-09T15:33:57;21.00;99.90
28761;DHT22;15917;50.014;8.352;2022-09-09T15:38:54;20.70;99.90
28761;DHT22;15917;50.014;8.352;2022-09-09T15:41:21;20.70;99.90
28761;DHT22;15917;50.014;8.352;2022-09-09T15:43:52;20.60;99.90
28761;DHT22;15917;50.014;8.352;2022-09-09T15:46:39;20.50;99.90
28761;DHT22;15917;50.014;8.352;2022-09-09T15:49:10;20.40;99.90
28761;DHT22;15917;50.014;8.352;2022-09-09T15:51:38;20.20;99.90
28761;DHT22;15917;50.014;8.352;2022-09-09T15:54:04;20.10;99.90
28761;DHT22;15917;50.014;8.352;2022-09-09T15:56:31;20.00;99.90
28761;DHT22;15917;50.014;8.352;2022-09-09T15:58:58;19.90;99.90
28761;DHT22;15917;50.014;8.352;2022-09-09T16:01:25;19.90;99.90
28761;DHT22;15917;50.014;8.352;2022-09-09T16:03:52;19.90;99.90
28761;DHT22;15917;50.014;8.352;2022-09-09T16:06:20;19.90;99.90
28761;DHT22;15917;50.014;8.352;2022-09-09T16:08:48;19.70;99.90
28761;DHT22;15917;50.014;8.352;2022-09-09T16:11:20;19.70;99.90
28761;DHT22;15917;50.014;8.352;2022-09-09T16:13:48;19.70;99.90
28761;DHT22;15917;50.014;8.352;2022-09-09T16:16:15;19.60;99.90
28761;DHT22;15917;50.014;8.352;2022-09-09T16:18:43;19.50;99.90
28761;DHT22;15917;50.014;8.352;2022-09-09T16:21:38;19.60;99.90
28761;DHT22;15917;50.014;8.352;2022-09-09T16:24:06;19.60;99.90
28761;DHT22;15917;50.014;8.352;2022-09-09T16:26:34;19.50;99.90
28761;DHT22;15917;50.014;8.352;2022-09-09T16:29:01;19.50;99.90
28761;DHT22;15917;50.014;8.352;2022-09-09T16:31:28;19.50;99.90
28761;DHT22;15917;50.014;8.352;2022-09-09T16:33:54;19.50;99.90
28761;DHT22;15917;50.014;8.352;2022-09-09T16:36:25;19.50;99.90
28761;DHT22;15917;50.014;8.352;2022-09-09T16:38:55;19.50;99.90
28761;DHT22;15917;50.014;8.352;2022-09-09T16:41:21;19.40;99.90
28761;DHT22;15917;50.014;8.352;2022-09-09T16:43:47;19.40;99.90
28761;DHT22;15917;50.014;8.352;2022-09-09T16:46:18;19.40;99.90
28761;DHT22;15917;50.014;8.352;2022-09-09T16:48:46;19.30;99.90
28761;DHT22;15917;50.014;8.352;2022-09-09T16:51:14;19.30;99.90
28761;DHT22;15917;50.014;8.352;2022-09-09T16:53:41;19.30;99.90
28761;DHT22;15917;50.014;8.352;2022-09-09T16:56:15;19.30;99.90
28761;DHT22;15917;50.014;8.352;2022-09-09T16:58:42;19.30;99.90
28761;DHT22;15917;50.014;8.352;2022-09-09T17:01:11;19.30;99.90
28761;DHT22;15917;50.014;8.352;2022-09-09T17:03:40;19.30;99.90
28761;DHT22;15917;50.014;8.352;2022-09-09T17:06:10;19.20;99.90
28761;DHT22;15917;50.014;8.352;2022-09-09T17:08:37;19.20;99.90
28761;DHT22;15917;50.014;8.352;2022-09-09T17:11:10;19.20;99.90
28761;DHT22;15917;50.014;8.352;2022-09-09T17:13:39;19.10;99.90
28761;DHT22;15917;50.014;8.352;2022-09-09T17:16:05;19.10;99.90
28761;DHT22;15917;50.014;8.352;2022-09-09T17:18:31;19.00;99.90
28761;DHT22;15917;50.014;8.352;2022-09-09T17:21:12;19.00;99.90
28761;DHT22;15917;50.014;8.352;2022-09-09T17:23:40;18.90;99.90
28761;DHT22;15917;50.014;8.352;2022-09-09T17:26:08;18.80;99.90
28761;DHT22;15917;50.014;8.352;2022-09-09T17:28:36;18.70;99.90
28761;DHT22;15917;50.014;8.352;2022-09-09T17:31:02;18.60;99.90
28761;DHT22;15917;50.014;8.352;2022-09-09T17:33:30;18.50;99.90
28761;DHT22;15917;50.014;8.352;2022-09-09T17:36:01;18.30;99.90
28761;DHT22;15917;50.014;8.352;2022-09-09T17:38:28;18.30;99.90
28761;DHT22;15917;50.014;8.352;2022-09-09T17:41:08;18.20;99.90
28761;DHT22;15917;50.014;8.352;2022-09-09T17:43:35;18.10;99.90
28761;DHT22;15917;50.014;8.352;2022-09-09T17:49:07;17.90;99.90
28761;DHT22;15917;50.014;8.352;2022-09-09T17:51:34;17.80;99.90
28761;DHT22;15917;50.014;8.352;2022-09-09T17:54:07;17.80;99.90
28761;DHT22;15917;50.014;8.352;2022-09-09T17:56:33;17.70;99.90
28761;DHT22;15917;50.014;8.352;2022-09-09T17:59:01;17.70;99.90
28761;DHT22;15917;50.014;8.352;2022-09-09T18:01:29;17.70;99.90
28761;DHT22;15917;50.014;8.352;2022-09-09T18:03:58;17.70;99.90
28761;DHT22;15917;50.014;8.352;2022-09-09T18:06:37;17.60;99.90
28761;DHT22;15917;50.014;8.352;2022-09-09T18:09:08;17.60;99.90
28761;DHT22;15917;50.014;8.352;2022-09-09T18:11:37;17.60;99.90
28761;DHT22;15917;50.014;8.352;2022-09-09T18:14:07;17.60;99.90